Time;durP1;ratioP1;P1;durP2;ratioP2;P2;SDS_P1;SDS_P2;PMS_P1;PMS_P2;Temp;Humidity;BMP_temperature;BMP_pressure;BME280_temperature;BME280_humidity;BME280_pressure;Samples;Min_cycle;Max_cycle;Signal;HPM_P1;HPM_P2
2023/12/05 00:01:41;;;;;;;16.00;8.47;;;;;;;;;;4982306;28;20496;-80
2023/12/05 00:04:09;;;;;;;14.03;8.20;;;;;;;;;;4969357;29;20479;-78
2023/12/05 00:06:38;;;;;;;16.60;8.30;;;;;;;;;;4968702;29;20463;-79
2023/12/05 00:09:13;;;;;;;16.47;8.13;;;;;;;;;;4968722;29;20457;-79
2023/12/05 00:11:45;;;;;;;16.70;9.80;;;;;;;;;;4966401;28;20496;-77
2023/12/05 00:14:13;;;;;;;16.27;8.90;;;;;;;;;;4966144;29;20468;-80
2023/12/05 00:16:47;;;;;;;14.87;8.10;;;;;;;;;;4968276;29;20464;-78
2023/12/05 00:19:20;;;;;;;14.03;8.90;;;;;;;;;;4969682;29;20516;-79
2023/12/05 00:21:48;;;;;;;13.70;9.60;;;;;;;;;;4978251;28;20499;-78
2023/12/05 00:24:18;;;;;;;16.60;9.37;;;;;;;;;;5006837;28;20512;-78
2023/12/05 00:26:51;;;;;;;15.93;7.60;;;;;;;;;;5008618;28;20739;-78
2023/12/05 00:29:20;;;;;;;13.43;8.27;;;;;;;;;;5008392;28;20858;-78
2023/12/05 00:31:48;;;;;;;15.27;8.83;;;;;;;;;;5009415;28;20562;-78
2023/12/05 00:34:16;;;;;;;13.70;8.50;;;;;;;;;;5008725;28;20450;-77
2023/12/05 00:36:49;;;;;;;14.97;8.50;;;;;;;;;;5008549;28;20565;-79
2023/12/05 00:39:16;;;;;;;16.33;9.23;;;;;;;;;;5006586;28;20850;-80
2023/12/05 00:41:44;;;;;;;16.30;10.33;;;;;;;;;;5008687;28;20486;-78
2023/12/05 00:44:13;;;;;;;13.93;10.27;;;;;;;;;;5007376;28;20482;-78
2023/12/05 00:46:41;;;;;;;16.73;9.13;;;;;;;;;;5007841;28;20449;-78
2023/12/05 00:49:09;;;;;;;14.13;8.10;;;;;;;;;;5006916;28;20458;-79
2023/12/05 00:51:36;;;;;;;15.50;8.30;;;;;;;;;;5004595;28;20449;-78
2023/12/05 00:54:04;;;;;;;15.93;8.87;;;;;;;;;;5002338;28;20455;-78
2023/12/05 00:56:32;;;;;;;15.93;9.20;;;;;;;;;;5004440;28;20455;-78
2023/12/05 00:59:00;;;;;;;14.20;10.00;;;;;;;;;;5006353;28;20462;-79
2023/12/05 01:01:29;;;;;;;14.37;9.10;;;;;;;;;;5004473;28;20466;-78
2023/12/05 01:03:57;;;;;;;17.80;9.20;;;;;;;;;;5006796;28;20737;-78
2023/12/05 01:06:25;;;;;;;13.07;7.40;;;;;;;;;;5005227;28;20456;-77
2023/12/05 01:08:52;;;;;;;15.23;9.77;;;;;;;;;;5004824;28;20763;-78
2023/12/05 01:11:20;;;;;;;18.03;9.47;;;;;;;;;;5004000;28;20457;-79
2023/12/05 01:13:54;;;;;;;18.20;8.60;;;;;;;;;;5001267;28;20689;-79
2023/12/05 01:16:40;;;;;;;17.53;9.70;;;;;;;;;;5006787;28;20462;-79
2023/12/05 01:19:09;;;;;;;17.10;10.07;;;;;;;;;;5001954;28;20471;-80
2023/12/05 01:21:37;;;;;;;15.30;9.37;;;;;;;;;;5002850;28;20486;-79
2023/12/05 01:24:06;;;;;;;16.10;9.23;;;;;;;;;;5005812;28;20465;-80
2023/12/05 01:26:33;;;;;;;14.30;9.60;;;;;;;;;;5008319;28;20494;-80
2023/12/05 01:29:02;;;;;;;15.20;9.00;;;;;;;;;;5011103;28;20735;-79
2023/12/05 01:31:30;;;;;;;15.90;9.57;;;;;;;;;;5007009;28;20870;-80
2023/12/05 01:33:58;;;;;;;13.60;8.60;;;;;;;;;;5005481;28;20493;-80
2023/12/05 01:36:27;;;;;;;14.97;9.20;;;;;;;;;;5006232;28;20769;-81
2023/12/05 01:38:55;;;;;;;17.60;9.73;;;;;;;;;;5010609;28;20459;-80
2023/12/05 01:41:23;;;;;;;15.97;9.70;;;;;;;;;;5010017;28;20449;-79
2023/12/05 01:43:51;;;;;;;20.53;10.50;;;;;;;;;;5013220;28;20501;-79
2023/12/05 01:46:20;;;;;;;13.37;8.30;;;;;;;;;;5006358;28;20922;-80
2023/12/05 01:48:48;;;;;;;13.37;7.77;;;;;;;;;;5009380;28;20462;-79
2023/12/05 01:51:16;;;;;;;15.43;9.50;;;;;;;;;;5011639;28;20459;-79
2023/12/05 01:53:46;;;;;;;13.17;8.90;;;;;;;;;;5010537;28;20457;-79
2023/12/05 01:56:14;;;;;;;15.60;8.80;;;;;;;;;;5003827;28;20487;-79
2023/12/05 01:58:42;;;;;;;12.80;9.23;;;;;;;;;;5007995;28;20487;-80
2023/12/05 02:01:12;;;;;;;16.90;10.30;;;;;;;;;;5011894;28;20870;-79
2023/12/05 02:03:40;;;;;;;18.73;8.80;;;;;;;;;;5008610;28;20489;-79
2023/12/05 02:06:09;;;;;;;18.37;10.00;;;;;;;;;;5007259;28;20867;-80
2023/12/05 02:08:37;;;;;;;17.63;9.50;;;;;;;;;;5004177;28;20541;-80
2023/12/05 02:11:06;;;;;;;15.93;10.00;;;;;;;;;;5005452;28;20537;-79
2023/12/05 02:13:34;;;;;;;17.30;10.27;;;;;;;;;;5008311;28;20459;-78
2023/12/05 02:16:06;;;;;;;14.13;8.47;;;;;;;;;;5010630;28;20458;-79
2023/12/05 02:18:35;;;;;;;22.53;10.17;;;;;;;;;;5004330;28;20455;-79
2023/12/05 02:21:06;;;;;;;18.07;8.80;;;;;;;;;;5004895;28;20842;-79
2023/12/05 02:23:43;;;;;;;21.93;9.93;;;;;;;;;;4984517;28;20755;-80
2023/12/05 02:26:21;;;;;;;15.70;10.00;;;;;;;;;;4983995;28;21103;-78
2023/12/05 02:28:53;;;;;;;18.03;9.57;;;;;;;;;;4983743;28;20462;-80
2023/12/05 02:31:21;;;;;;;16.03;9.87;;;;;;;;;;4986888;28;20451;-80
2023/12/05 02:33:49;;;;;;;16.20;10.13;;;;;;;;;;4986348;28;20455;-80
2023/12/05 02:36:21;;;;;;;18.67;10.03;;;;;;;;;;4985865;28;20460;-80
2023/12/05 02:38:54;;;;;;;15.73;9.63;;;;;;;;;;4987285;28;20468;-80
2023/12/05 02:41:24;;;;;;;19.10;10.27;;;;;;;;;;4990514;28;20467;-80
2023/12/05 02:43:57;;;;;;;15.67;9.77;;;;;;;;;;4993125;28;20503;-80
2023/12/05 02:46:25;;;;;;;14.27;9.13;;;;;;;;;;4988884;28;20470;-80
2023/12/05 02:48:54;;;;;;;15.70;9.13;;;;;;;;;;4986487;28;20463;-80
2023/12/05 02:51:21;;;;;;;14.37;9.57;;;;;;;;;;4989357;28;20468;-78
2023/12/05 02:53:49;;;;;;;18.53;10.27;;;;;;;;;;4992547;28;20474;-77
2023/12/05 02:56:17;;;;;;;16.50;9.70;;;;;;;;;;4988572;28;20467;-79
2023/12/05 02:58:44;;;;;;;18.70;9.87;;;;;;;;;;4985838;28;20531;-79
2023/12/05 03:01:13;;;;;;;14.23;9.30;;;;;;;;;;4986132;28;20534;-79
2023/12/05 03:03:42;;;;;;;17.87;11.37;;;;;;;;;;4988932;28;20575;-80
2023/12/05 03:06:10;;;;;;;19.33;11.27;;;;;;;;;;4984530;28;20455;-79
2023/12/05 03:08:38;;;;;;;17.00;10.80;;;;;;;;;;4985621;28;20952;-78
2023/12/05 03:11:06;;;;;;;18.87;10.50;;;;;;;;;;4986126;28;20540;-80
2023/12/05 03:13:33;;;;;;;16.57;9.83;;;;;;;;;;4986171;28;20543;-80
2023/12/05 03:16:01;;;;;;;19.87;12.00;;;;;;;;;;4985600;28;20460;-80
2023/12/05 03:18:31;;;;;;;20.07;12.00;;;;;;;;;;4987299;28;20946;-79
2023/12/05 03:20:58;;;;;;;18.50;9.83;;;;;;;;;;4987657;28;20466;-79
2023/12/05 03:23:26;;;;;;;19.23;11.13;;;;;;;;;;5002055;28;20497;-78
2023/12/05 03:25:54;;;;;;;18.20;11.13;;;;;;;;;;5004269;28;20473;-79
2023/12/05 03:28:21;;;;;;;17.30;11.47;;;;;;;;;;5007017;28;20455;-79
2023/12/05 03:30:49;;;;;;;17.37;10.63;;;;;;;;;;5007496;28;20442;-80
2023/12/05 03:33:16;;;;;;;17.90;11.77;;;;;;;;;;5001642;28;20466;-80
2023/12/05 03:35:46;;;;;;;21.40;11.27;;;;;;;;;;5003320;28;20461;-78
2023/12/05 03:38:13;;;;;;;17.97;11.63;;;;;;;;;;5005115;28;20478;-78
2023/12/05 03:40:41;;;;;;;21.43;12.00;;;;;;;;;;5006949;28;20463;-78
2023/12/05 03:43:08;;;;;;;19.50;11.90;;;;;;;;;;5006973;28;20523;-79
2023/12/05 03:45:36;;;;;;;19.40;11.70;;;;;;;;;;5011102;28;20490;-80
2023/12/05 03:48:03;;;;;;;17.93;11.63;;;;;;;;;;5001653;28;20467;-79
2023/12/05 03:50:31;;;;;;;21.40;10.50;;;;;;;;;;5003216;28;20777;-80
2023/12/05 03:53:00;;;;;;;19.30;11.27;;;;;;;;;;5010629;28;20478;-79
2023/12/05 03:55:28;;;;;;;21.63;13.07;;;;;;;;;;5007033;28;20462;-79
2023/12/05 03:57:55;;;;;;;23.20;13.20;;;;;;;;;;5008236;28;20461;-80
2023/12/05 04:00:25;;;;;;;20.70;11.87;;;;;;;;;;5005080;28;20487;-78
2023/12/05 04:02:53;;;;;;;21.87;13.20;;;;;;;;;;5006392;28;20494;-79
2023/12/05 04:05:20;;;;;;;20.00;12.37;;;;;;;;;;5006254;28;20458;-79
2023/12/05 04:07:48;;;;;;;21.67;11.67;;;;;;;;;;5003606;28;20470;-79
2023/12/05 04:10:20;;;;;;;22.87;11.70;;;;;;;;;;5007331;28;20503;-78
2023/12/05 04:12:48;;;;;;;20.00;10.53;;;;;;;;;;5004950;28;20449;-79
2023/12/05 04:15:15;;;;;;;20.57;11.47;;;;;;;;;;5003022;28;20459;-78
2023/12/05 04:17:43;;;;;;;23.83;12.63;;;;;;;;;;5002820;28;20866;-78
2023/12/05 04:20:17;;;;;;;23.50;13.00;;;;;;;;;;5003492;28;20459;-79
2023/12/05 04:22:46;;;;;;;20.57;12.20;;;;;;;;;;5003814;28;20500;-78
2023/12/05 04:25:14;;;;;;;21.43;14.10;;;;;;;;;;5003648;28;20481;-78
2023/12/05 04:27:43;;;;;;;22.57;12.60;;;;;;;;;;5001597;28;20462;-78
2023/12/05 04:30:11;;;;;;;22.50;13.37;;;;;;;;;;5000510;28;20458;-79
2023/12/05 04:32:39;;;;;;;23.27;12.23;;;;;;;;;;5002671;28;20454;-79
2023/12/05 04:35:07;;;;;;;27.00;13.30;;;;;;;;;;4998710;28;20465;-80
2023/12/05 04:37:35;;;;;;;20.87;12.60;;;;;;;;;;5001199;28;20459;-79
2023/12/05 04:40:05;;;;;;;23.80;14.10;;;;;;;;;;5000305;28;20458;-77
2023/12/05 04:42:33;;;;;;;21.90;12.93;;;;;;;;;;5000257;28;20817;-78
2023/12/05 04:45:02;;;;;;;24.20;14.97;;;;;;;;;;5001055;28;20481;-80
2023/12/05 04:47:30;;;;;;;27.20;14.37;;;;;;;;;;5000114;28;20491;-80
2023/12/05 04:49:58;;;;;;;25.23;14.97;;;;;;;;;;5001660;28;20510;-79
2023/12/05 04:52:25;;;;;;;24.10;13.10;;;;;;;;;;4998769;28;20462;-80
2023/12/05 04:54:53;;;;;;;25.47;13.90;;;;;;;;;;4999776;28;20478;-80
2023/12/05 04:57:20;;;;;;;23.33;12.57;;;;;;;;;;5002328;28;20465;-79
2023/12/05 04:59:48;;;;;;;24.23;14.07;;;;;;;;;;5002522;28;20466;-79
2023/12/05 05:02:18;;;;;;;20.80;13.20;;;;;;;;;;5008995;28;20458;-79
2023/12/05 05:04:45;;;;;;;25.00;13.37;;;;;;;;;;5008196;28;20489;-79
2023/12/05 05:07:14;;;;;;;25.77;14.87;;;;;;;;;;5007400;28;20451;-79
2023/12/05 05:09:41;;;;;;;27.50;14.73;;;;;;;;;;5010570;28;20925;-78
2023/12/05 05:12:10;;;;;;;24.33;14.17;;;;;;;;;;5002752;28;20462;-80
2023/12/05 05:14:38;;;;;;;28.80;14.77;;;;;;;;;;5001616;28;20553;-79
2023/12/05 05:17:07;;;;;;;30.23;16.70;;;;;;;;;;5002341;28;20543;-80
2023/12/05 05:19:36;;;;;;;24.77;12.83;;;;;;;;;;5001072;28;20537;-78
2023/12/05 05:22:04;;;;;;;25.67;15.13;;;;;;;;;;5001135;28;20490;-78
2023/12/05 05:24:32;;;;;;;26.50;15.00;;;;;;;;;;4998957;28;20929;-78
2023/12/05 05:27:00;;;;;;;31.50;15.90;;;;;;;;;;5000560;28;20752;-78
2023/12/05 05:29:27;;;;;;;26.10;15.40;;;;;;;;;;5000462;28;20454;-79
2023/12/05 05:31:55;;;;;;;30.60;15.73;;;;;;;;;;5003648;28;20941;-80
2023/12/05 05:34:23;;;;;;;30.90;16.73;;;;;;;;;;5002176;28;20464;-79
2023/12/05 05:36:52;;;;;;;31.63;17.10;;;;;;;;;;5002752;28;20451;-79
2023/12/05 05:39:20;;;;;;;24.47;15.60;;;;;;;;;;5000714;28;20545;-80
2023/12/05 05:41:48;;;;;;;33.83;18.23;;;;;;;;;;5002611;28;20458;-79
2023/12/05 05:44:15;;;;;;;27.70;17.17;;;;;;;;;;4999803;28;20490;-78
2023/12/05 05:46:42;;;;;;;30.10;16.77;;;;;;;;;;4998742;28;20470;-80
2023/12/05 05:49:10;;;;;;;26.50;17.33;;;;;;;;;;5000617;28;20465;-78
2023/12/05 05:51:37;;;;;;;32.50;16.97;;;;;;;;;;5003149;28;20458;-78
2023/12/05 05:54:07;;;;;;;24.93;15.50;;;;;;;;;;5006510;28;20459;-79
2023/12/05 05:56:39;;;;;;;27.40;16.87;;;;;;;;;;5001225;28;20458;-78
2023/12/05 05:59:10;;;;;;;28.37;18.43;;;;;;;;;;5002073;28;20508;-78
2023/12/05 06:01:37;;;;;;;33.53;17.00;;;;;;;;;;4998004;28;20881;-79
2023/12/05 06:04:05;;;;;;;33.67;18.30;;;;;;;;;;5000346;28;20477;-78
2023/12/05 06:06:33;;;;;;;29.10;17.67;;;;;;;;;;5001316;28;21071;-78
2023/12/05 06:09:01;;;;;;;30.30;17.73;;;;;;;;;;5002043;28;20501;-78
2023/12/05 06:11:31;;;;;;;29.73;17.70;;;;;;;;;;4999948;28;20458;-79
2023/12/05 06:13:59;;;;;;;32.37;19.90;;;;;;;;;;5003448;28;20521;-78
2023/12/05 06:16:27;;;;;;;24.70;16.37;;;;;;;;;;5000798;28;20451;-78
2023/12/05 06:18:54;;;;;;;29.77;18.47;;;;;;;;;;4998285;28;20447;-78
2023/12/05 06:21:22;;;;;;;37.50;19.40;;;;;;;;;;4998274;28;20459;-79
2023/12/05 06:23:54;;;;;;;31.23;18.47;;;;;;;;;;4999070;28;20951;-78
2023/12/05 06:26:21;;;;;;;32.77;18.70;;;;;;;;;;5001113;28;20458;-78
2023/12/05 06:28:53;;;;;;;35.63;20.37;;;;;;;;;;4996120;28;20933;-78
2023/12/05 06:31:21;;;;;;;32.73;18.80;;;;;;;;;;4995475;28;20533;-77
2023/12/05 06:33:48;;;;;;;33.67;19.20;;;;;;;;;;4995859;28;20858;-78
2023/12/05 06:36:18;;;;;;;32.00;18.57;;;;;;;;;;4990806;28;20530;-78
2023/12/05 06:38:45;;;;;;;39.97;22.33;;;;;;;;;;4988287;28;20439;-79
2023/12/05 06:41:13;;;;;;;35.47;19.87;;;;;;;;;;4990982;28;20471;-78
2023/12/05 06:43:41;;;;;;;32.07;18.60;;;;;;;;;;5017761;28;20493;-78
2023/12/05 06:46:11;;;;;;;31.40;17.93;;;;;;;;;;5032875;28;20773;-79
2023/12/05 06:48:38;;;;;;;34.50;19.20;;;;;;;;;;5030277;28;20697;-77
2023/12/05 06:51:06;;;;;;;31.23;19.10;;;;;;;;;;5034799;28;20462;-79
2023/12/05 06:53:34;;;;;;;32.13;19.03;;;;;;;;;;5034140;28;20449;-79
2023/12/05 06:56:02;;;;;;;37.90;22.10;;;;;;;;;;5034673;28;20468;-78
2023/12/05 06:58:29;;;;;;;34.63;18.80;;;;;;;;;;5039411;28;20962;-78
2023/12/05 07:00:58;;;;;;;34.27;18.20;;;;;;;;;;5035312;28;20527;-79
2023/12/05 07:03:27;;;;;;;34.80;19.70;;;;;;;;;;5031718;28;20958;-78
2023/12/05 07:05:55;;;;;;;35.83;19.43;;;;;;;;;;5027364;28;20445;-78
2023/12/05 07:08:22;;;;;;;28.07;17.20;;;;;;;;;;5027903;28;20700;-78
2023/12/05 07:10:50;;;;;;;29.60;18.20;;;;;;;;;;5029344;28;20935;-79
2023/12/05 07:13:18;;;;;;;29.33;18.37;;;;;;;;;;5026639;28;20976;-79
2023/12/05 07:15:46;;;;;;;30.17;17.70;;;;;;;;;;5028269;28;20887;-78
2023/12/05 07:18:13;;;;;;;31.80;19.67;;;;;;;;;;5031468;28;20448;-79
2023/12/05 07:20:43;;;;;;;31.50;18.80;;;;;;;;;;5031523;28;20453;-78
2023/12/05 07:23:10;;;;;;;33.90;20.13;;;;;;;;;;5032397;28;20490;-78
2023/12/05 07:25:38;;;;;;;29.70;19.43;;;;;;;;;;5037458;28;20484;-79
2023/12/05 07:28:06;;;;;;;31.27;18.30;;;;;;;;;;5038343;28;20471;-79
2023/12/05 07:30:34;;;;;;;32.80;18.77;;;;;;;;;;5039318;28;20461;-78
2023/12/05 07:33:01;;;;;;;34.53;18.50;;;;;;;;;;5036752;28;20452;-79
2023/12/05 07:35:29;;;;;;;37.03;18.77;;;;;;;;;;5035710;28;20680;-79
2023/12/05 07:37:59;;;;;;;33.07;18.07;;;;;;;;;;5033209;28;20875;-78
2023/12/05 07:40:30;;;;;;;34.23;19.10;;;;;;;;;;5032821;28;20472;-79
2023/12/05 07:42:57;;;;;;;31.37;18.40;;;;;;;;;;5036620;28;20846;-78
2023/12/05 07:45:25;;;;;;;35.70;19.80;;;;;;;;;;5037690;28;20987;-79
2023/12/05 07:47:52;;;;;;;33.97;19.07;;;;;;;;;;5032516;28;20449;-78
2023/12/05 07:50:20;;;;;;;34.40;19.03;;;;;;;;;;5037144;28;20456;-79
2023/12/05 07:52:49;;;;;;;36.87;20.43;;;;;;;;;;5033339;28;20950;-77
2023/12/05 07:55:20;;;;;;;33.20;19.57;;;;;;;;;;5035426;28;20449;-79
2023/12/05 07:57:48;;;;;;;29.37;18.50;;;;;;;;;;5031040;28;20658;-81
2023/12/05 08:00:19;;;;;;;37.17;18.90;;;;;;;;;;5033230;28;20468;-79
2023/12/05 08:02:48;;;;;;;31.90;20.13;;;;;;;;;;5034317;28;20448;-78
2023/12/05 08:05:16;;;;;;;35.63;19.90;;;;;;;;;;5030610;28;20500;-78
2023/12/05 08:07:44;;;;;;;32.70;19.80;;;;;;;;;;5030697;28;20551;-77
2023/12/05 08:10:12;;;;;;;32.70;20.57;;;;;;;;;;5029211;28;20457;-78
2023/12/05 08:12:41;;;;;;;31.40;20.40;;;;;;;;;;5032244;28;20474;-78
2023/12/05 08:15:09;;;;;;;35.17;20.70;;;;;;;;;;5032940;28;20508;-78
2023/12/05 08:17:37;;;;;;;29.80;17.37;;;;;;;;;;5031207;28;20454;-77
2023/12/05 08:20:21;;;;;;;35.77;21.10;;;;;;;;;;5028129;28;20457;-78
2023/12/05 08:22:48;;;;;;;30.43;19.50;;;;;;;;;;5032722;28;20457;-79
2023/12/05 08:25:16;;;;;;;30.80;19.93;;;;;;;;;;5030821;28;20493;-79
2023/12/05 08:27:45;;;;;;;29.43;18.30;;;;;;;;;;5033572;28;20457;-79
2023/12/05 08:30:20;;;;;;;31.30;19.10;;;;;;;;;;5038296;28;20440;-78
2023/12/05 08:32:48;;;;;;;31.90;18.73;;;;;;;;;;5037375;28;20458;-75
2023/12/05 08:35:16;;;;;;;31.60;20.03;;;;;;;;;;5039057;28;20462;-77
2023/12/05 08:37:44;;;;;;;33.87;19.10;;;;;;;;;;5028708;28;20569;-77
2023/12/05 08:40:16;;;;;;;31.50;18.80;;;;;;;;;;5032114;28;20692;-79
2023/12/05 08:42:46;;;;;;;29.73;19.10;;;;;;;;;;5032483;28;20488;-79
2023/12/05 08:45:14;;;;;;;31.37;18.70;;;;;;;;;;5029688;28;20599;-77
2023/12/05 08:47:42;;;;;;;33.60;19.63;;;;;;;;;;5034389;28;20460;-77
2023/12/05 08:50:10;;;;;;;32.30;19.63;;;;;;;;;;5036565;28;20468;-78
2023/12/05 08:52:38;;;;;;;29.30;19.40;;;;;;;;;;5038925;28;20452;-79
2023/12/05 08:55:06;;;;;;;35.80;19.97;;;;;;;;;;5033352;28;20482;-78
2023/12/05 08:57:34;;;;;;;34.27;18.80;;;;;;;;;;5034429;28;20526;-79
2023/12/05 09:00:08;;;;;;;31.17;19.40;;;;;;;;;;5030587;28;20461;-78
2023/12/05 09:02:36;;;;;;;37.33;20.30;;;;;;;;;;5034637;28;20448;-78
2023/12/05 09:05:04;;;;;;;28.53;18.37;;;;;;;;;;5030697;28;20481;-77
2023/12/05 09:07:32;;;;;;;32.20;19.77;;;;;;;;;;5035476;28;20461;-78
2023/12/05 09:10:00;;;;;;;35.30;19.40;;;;;;;;;;5032301;28;20444;-78
2023/12/05 09:12:29;;;;;;;32.67;19.07;;;;;;;;;;5035561;28;20568;-77
2023/12/05 09:14:56;;;;;;;33.00;18.80;;;;;;;;;;5033384;28;21035;-78
2023/12/05 09:17:25;;;;;;;30.27;19.00;;;;;;;;;;5032668;28;20467;-77
2023/12/05 09:19:54;;;;;;;33.83;18.80;;;;;;;;;;5031376;28;20482;-77
2023/12/05 09:22:22;;;;;;;32.20;18.53;;;;;;;;;;5034718;28;20444;-76
2023/12/05 09:24:53;;;;;;;33.97;19.30;;;;;;;;;;5034949;28;20482;-76
2023/12/05 09:27:21;;;;;;;32.43;19.20;;;;;;;;;;5034059;28;20461;-78
2023/12/05 09:29:50;;;;;;;37.70;19.93;;;;;;;;;;5032503;28;20466;-77
2023/12/05 09:32:18;;;;;;;34.10;18.37;;;;;;;;;;5034793;28;20460;-78
2023/12/05 09:34:48;;;;;;;34.07;20.00;;;;;;;;;;5033454;28;20461;-78
2023/12/05 09:37:16;;;;;;;34.50;20.47;;;;;;;;;;5036879;28;20519;-79
2023/12/05 09:39:44;;;;;;;33.23;20.17;;;;;;;;;;5039456;28;20445;-79
2023/12/05 09:42:14;;;;;;;32.97;19.37;;;;;;;;;;5041283;28;21090;-78
2023/12/05 09:44:45;;;;;;;33.37;21.60;;;;;;;;;;5044273;28;20488;-79
2023/12/05 09:47:13;;;;;;;28.80;18.87;;;;;;;;;;5045057;28;20452;-80
2023/12/05 09:49:41;;;;;;;34.43;18.83;;;;;;;;;;5041540;28;20453;-79
2023/12/05 09:52:11;;;;;;;33.37;17.87;;;;;;;;;;5036272;28;20533;-78
2023/12/05 09:54:42;;;;;;;33.33;17.50;;;;;;;;;;5029978;28;20749;-80
2023/12/05 09:57:12;;;;;;;26.17;15.97;;;;;;;;;;5041323;28;20536;-79
2023/12/05 09:59:39;;;;;;;34.10;19.63;;;;;;;;;;5032637;28;20762;-78
2023/12/05 10:02:08;;;;;;;42.80;26.20;;;;;;;;;;5036437;28;20460;-79
2023/12/05 10:04:42;;;;;;;30.60;17.03;;;;;;;;;;5039655;28;20531;-79
2023/12/05 10:07:12;;;;;;;32.37;17.97;;;;;;;;;;5023277;28;20528;-79
2023/12/05 10:09:42;;;;;;;32.00;18.67;;;;;;;;;;5021416;28;20484;-79
2023/12/05 10:12:10;;;;;;;34.13;19.70;;;;;;;;;;5034817;28;20446;-77
2023/12/05 10:14:39;;;;;;;31.77;18.43;;;;;;;;;;5037663;28;20473;-79
2023/12/05 10:17:07;;;;;;;32.67;18.20;;;;;;;;;;5037501;28;20669;-78
2023/12/05 10:19:35;;;;;;;33.43;18.77;;;;;;;;;;5034567;28;20460;-77
2023/12/05 10:22:04;;;;;;;29.77;18.47;;;;;;;;;;5043374;28;20472;-78
2023/12/05 10:24:43;;;;;;;31.90;19.93;;;;;;;;;;5040332;28;20465;-78
2023/12/05 10:27:14;;;;;;;27.97;16.50;;;;;;;;;;5041842;28;20745;-78
2023/12/05 10:29:43;;;;;;;31.60;18.80;;;;;;;;;;5041505;28;21068;-79
2023/12/05 10:32:12;;;;;;;24.57;16.37;;;;;;;;;;5045076;28;20467;-79
2023/12/05 10:34:50;;;;;;;28.53;17.50;;;;;;;;;;5041085;28;20468;-77
2023/12/05 10:37:22;;;;;;;27.03;17.07;;;;;;;;;;5041306;28;20491;-78
2023/12/05 10:39:52;;;;;;;32.37;19.33;;;;;;;;;;5035365;28;20449;-79
2023/12/05 10:42:20;;;;;;;30.37;18.60;;;;;;;;;;5028559;28;20559;-79
2023/12/05 10:44:48;;;;;;;27.17;16.90;;;;;;;;;;5037375;28;20449;-79
2023/12/05 10:47:16;;;;;;;27.50;16.80;;;;;;;;;;5039472;28;21134;-79
2023/12/05 10:49:44;;;;;;;31.17;17.77;;;;;;;;;;5030946;28;20462;-80
2023/12/05 10:52:14;;;;;;;26.00;17.50;;;;;;;;;;5022726;28;20511;-78
2023/12/05 10:54:42;;;;;;;27.03;16.20;;;;;;;;;;5020856;28;20489;-80
2023/12/05 10:57:11;;;;;;;28.00;16.77;;;;;;;;;;5033208;28;20467;-79
2023/12/05 10:59:42;;;;;;;30.10;18.00;;;;;;;;;;5026627;28;20753;-77
2023/12/05 11:02:19;;;;;;;26.73;16.97;;;;;;;;;;5036273;28;20464;-77
2023/12/05 11:04:53;;;;;;;28.20;18.30;;;;;;;;;;5038219;28;20499;-77
2023/12/05 11:07:51;;;;;;;29.60;18.87;;;;;;;;;;5039477;28;20460;-79
2023/12/05 11:10:19;;;;;;;38.63;16.83;;;;;;;;;;5042614;28;20745;-77
2023/12/05 11:15:52;;;;;;;32.00;17.37;;;;;;;;;;5019342;28;20527;-78
2023/12/05 11:18:25;;;;;;;26.60;16.43;;;;;;;;;;5038308;28;20472;-77
2023/12/05 11:21:04;;;;;;;27.47;17.40;;;;;;;;;;5038123;28;20444;-77
2023/12/05 11:23:46;;;;;;;30.87;17.00;;;;;;;;;;5036899;28;20464;-77
2023/12/05 11:26:20;;;;;;;30.83;18.30;;;;;;;;;;5035534;28;20865;-77
2023/12/05 11:31:54;;;;;;;31.47;19.03;;;;;;;;;;5036143;28;20463;-78
2023/12/05 11:34:55;;;;;;;27.20;16.70;;;;;;;;;;5039259;28;20460;-78
2023/12/05 11:37:39;;;;;;;25.77;16.03;;;;;;;;;;5037190;28;20488;-78
2023/12/05 11:40:07;;;;;;;26.30;16.37;;;;;;;;;;5023576;28;20794;-78
2023/12/05 11:42:36;;;;;;;27.90;16.80;;;;;;;;;;5031277;28;20829;-78
2023/12/05 11:45:18;;;;;;;28.57;17.13;;;;;;;;;;5036693;28;20461;-78
2023/12/05 11:47:47;;;;;;;26.90;18.27;;;;;;;;;;5035617;28;20445;-78
2023/12/05 11:50:27;;;;;;;27.50;17.47;;;;;;;;;;5037923;28;20441;-78
2023/12/05 11:52:57;;;;;;;30.20;17.00;;;;;;;;;;5028988;28;20546;-78
2023/12/05 11:55:27;;;;;;;27.70;16.40;;;;;;;;;;5027225;28;20467;-78
2023/12/05 11:57:55;;;;;;;28.57;18.23;;;;;;;;;;5013652;28;20444;-78
2023/12/05 12:00:34;;;;;;;;;;;;;;;;;;;;;
2023/12/05 12:03:07;;;;;;;26.43;16.47;;;;;;;;;;5032972;28;20549;-78
2023/12/05 12:05:36;;;;;;;27.87;18.70;;;;;;;;;;5028601;28;20488;-77
2023/12/05 12:08:03;;;;;;;24.60;16.80;;;;;;;;;;5025341;28;20453;-78
2023/12/05 12:10:32;;;;;;;25.30;18.10;;;;;;;;;;5031281;28;20451;-77
2023/12/05 12:13:01;;;;;;;26.03;18.00;;;;;;;;;;5027177;28;20460;-77
2023/12/05 12:15:36;;;;;;;37.87;24.80;;;;;;;;;;5030190;28;20467;-77
2023/12/05 12:18:06;;;;;;;31.50;18.17;;;;;;;;;;5037679;28;20439;-78
2023/12/05 12:20:34;;;;;;;32.07;20.70;;;;;;;;;;5048919;28;20468;-77
2023/12/05 12:23:02;;;;;;;29.93;18.40;;;;;;;;;;5044976;28;20462;-77
2023/12/05 12:25:34;;;;;;;30.07;18.43;;;;;;;;;;5048372;28;20557;-75
2023/12/05 12:28:04;;;;;;;28.90;17.77;;;;;;;;;;5044054;28;20476;-77
2023/12/05 12:30:37;;;;;;;34.40;20.00;;;;;;;;;;5047924;28;20470;-75
2023/12/05 12:33:13;;;;;;;27.53;17.60;;;;;;;;;;5053851;28;20861;-75
2023/12/05 12:35:42;;;;;;;31.90;19.33;;;;;;;;;;5046212;28;20467;-76
2023/12/05 12:38:17;;;;;;;32.57;20.00;;;;;;;;;;5036650;28;20451;-79
2023/12/05 12:41:14;;;;;;;32.90;17.90;;;;;;;;;;5046606;28;20463;-77
2023/12/05 12:43:48;;;;;;;31.90;18.93;;;;;;;;;;5035744;28;20464;-79
2023/12/05 12:46:16;;;;;;;31.27;17.90;;;;;;;;;;5047448;28;20525;-78
2023/12/05 12:48:48;;;;;;;30.20;18.50;;;;;;;;;;5048683;28;20528;-77
2023/12/05 12:51:19;;;;;;;33.10;18.23;;;;;;;;;;5056463;28;20463;-79
2023/12/05 12:53:48;;;;;;;27.47;18.43;;;;;;;;;;5051476;28;20448;-78
2023/12/05 12:56:16;;;;;;;35.80;17.63;;;;;;;;;;5054773;28;20467;-79
2023/12/05 12:58:44;;;;;;;28.80;17.30;;;;;;;;;;5054758;28;20494;-77
2023/12/05 13:01:13;;;;;;;28.20;18.47;;;;;;;;;;5052109;28;20843;-78
2023/12/05 13:03:47;;;;;;;26.00;16.70;;;;;;;;;;5051576;28;20454;-77
2023/12/05 13:06:16;;;;;;;30.60;17.40;;;;;;;;;;5045362;28;20553;-77
2023/12/05 13:08:48;;;;;;;28.47;17.43;;;;;;;;;;5052957;28;20469;-77
2023/12/05 13:11:18;;;;;;;29.40;17.67;;;;;;;;;;5049314;28;20463;-77
2023/12/05 13:13:45;;;;;;;27.70;18.27;;;;;;;;;;5046065;28;20456;-78
2023/12/05 13:16:15;;;;;;;44.63;23.83;;;;;;;;;;5030675;28;20480;-77
2023/12/05 13:18:48;;;;;;;29.90;17.83;;;;;;;;;;5002842;28;20461;-77
2023/12/05 13:21:18;;;;;;;29.63;19.20;;;;;;;;;;5010657;28;20457;-77
2023/12/05 13:23:47;;;;;;;32.67;17.77;;;;;;;;;;5019598;28;20457;-77
2023/12/05 13:26:14;;;;;;;27.30;17.87;;;;;;;;;;5016025;28;20491;-77
2023/12/05 13:28:46;;;;;;;29.87;17.60;;;;;;;;;;5015638;28;20461;-76
2023/12/05 13:31:14;;;;;;;28.53;15.70;;;;;;;;;;5011802;28;20472;-78
2023/12/05 13:33:43;;;;;;;25.50;17.23;;;;;;;;;;5004148;28;20459;-77
2023/12/05 13:36:15;;;;;;;29.73;16.33;;;;;;;;;;5003540;28;20520;-78
2023/12/05 13:38:43;;;;;;;26.10;17.70;;;;;;;;;;4992454;28;20859;-78
2023/12/05 13:41:11;;;;;;;26.97;17.30;;;;;;;;;;4996579;28;20512;-78
2023/12/05 13:43:46;;;;;;;30.83;17.30;;;;;;;;;;5003406;28;20953;-77
2023/12/05 13:46:20;;;;;;;27.93;16.43;;;;;;;;;;5014210;28;20505;-77
2023/12/05 13:48:48;;;;;;;28.80;17.57;;;;;;;;;;5012845;28;20755;-78
2023/12/05 13:51:29;;;;;;;25.83;14.57;;;;;;;;;;5021000;28;20542;-78
2023/12/05 13:53:57;;;;;;;38.80;25.07;;;;;;;;;;5014186;28;20536;-78
2023/12/05 13:56:25;;;;;;;29.20;17.50;;;;;;;;;;4996289;28;20456;-80
2023/12/05 13:58:53;;;;;;;30.50;19.97;;;;;;;;;;5000428;28;20454;-78
2023/12/05 14:01:21;;;;;;;32.60;19.10;;;;;;;;;;4996911;28;20458;-78
2023/12/05 14:03:48;;;;;;;32.27;17.93;;;;;;;;;;4995454;28;20455;-80
2023/12/05 14:06:16;;;;;;;29.80;17.40;;;;;;;;;;4993630;28;20487;-78
2023/12/05 14:08:46;;;;;;;26.90;16.07;;;;;;;;;;4991005;28;20462;-78
2023/12/05 14:11:14;;;;;;;32.00;17.93;;;;;;;;;;4994497;28;20466;-77
2023/12/05 14:13:43;;;;;;;27.43;17.80;;;;;;;;;;4995700;28;20451;-77
2023/12/05 14:16:12;;;;;;;31.97;20.43;;;;;;;;;;5002768;28;20505;-78
2023/12/05 14:18:40;;;;;;;26.73;17.90;;;;;;;;;;5017350;28;20461;-78
2023/12/05 14:21:08;;;;;;;29.47;18.07;;;;;;;;;;5017231;28;20469;-77
2023/12/05 14:23:36;;;;;;;27.87;18.47;;;;;;;;;;5010945;28;20465;-77
2023/12/05 14:26:05;;;;;;;29.60;18.17;;;;;;;;;;5013283;28;20749;-77
2023/12/05 14:28:33;;;;;;;30.47;17.83;;;;;;;;;;5013662;28;20452;-78
2023/12/05 14:31:02;;;;;;;27.87;17.33;;;;;;;;;;5015768;28;20747;-77
2023/12/05 14:33:30;;;;;;;25.23;16.80;;;;;;;;;;5018065;28;20466;-77
2023/12/05 14:36:00;;;;;;;29.47;18.90;;;;;;;;;;5025240;28;20465;-78
2023/12/05 14:38:31;;;;;;;30.37;18.70;;;;;;;;;;5018303;28;20476;-78
2023/12/05 14:41:00;;;;;;;34.07;19.37;;;;;;;;;;5017843;28;20465;-78